Time;durP1;ratioP1;P1;durP2;ratioP2;P2;SDS_P1;SDS_P2;PMS_P1;PMS_P2;Temp;Humidity;BMP_temperature;BMP_pressure;BME280_temperature;BME280_humidity;BME280_pressure;Samples;Min_cycle;Max_cycle;Signal;HPM_P1;HPM_P2
2023/02/26 00:00:12;;;;;;;11.15;4.72;;;-2.10;99.90;;;;;;5093669;28;20111;-66
2023/02/26 00:02:37;;;;;;;10.07;4.50;;;-2.10;99.90;;;;;;5093365;28;20031;-66
2023/02/26 00:05:04;;;;;;;11.18;5.07;;;-2.20;99.90;;;;;;5093454;28;20040;-66
2023/02/26 00:07:30;;;;;;;11.20;5.15;;;-2.10;99.90;;;;;;5093669;28;20031;-66
2023/02/26 00:09:56;;;;;;;12.07;4.43;;;-2.00;99.90;;;;;;5093354;28;20028;-66
2023/02/26 00:12:21;;;;;;;11.90;5.22;;;-1.90;99.90;;;;;;5093624;28;20104;-66
2023/02/26 00:14:47;;;;;;;11.70;4.72;;;-1.80;99.90;;;;;;5093450;28;20144;-65
2023/02/26 00:17:25;;;;;;;13.95;5.18;;;-1.80;99.90;;;;;;5093482;28;20039;-66
2023/02/26 00:19:50;;;;;;;8.80;3.70;;;-1.80;99.90;;;;;;5093463;28;20039;-65
2023/02/26 00:22:16;;;;;;;10.80;4.22;;;-1.70;99.90;;;;;;5093223;28;20036;-65
2023/02/26 00:24:42;;;;;;;9.27;4.30;;;-1.70;99.90;;;;;;5093349;28;20052;-65
2023/02/26 00:27:10;;;;;;;12.18;4.43;;;-1.80;99.90;;;;;;5093525;28;20073;-65
2023/02/26 00:29:36;;;;;;;9.55;3.70;;;-1.80;99.90;;;;;;5093090;28;20134;-65
2023/02/26 00:32:02;;;;;;;10.00;3.40;;;-1.80;99.90;;;;;;5093351;28;20529;-65
2023/02/26 00:34:28;;;;;;;9.38;4.10;;;-1.80;99.90;;;;;;5093340;28;20059;-66
2023/02/26 00:37:16;;;;;;;6.47;3.25;;;-1.90;99.90;;;;;;5093526;28;20031;-65
2023/02/26 00:40:09;;;;;;;11.05;4.10;;;-1.90;99.90;;;;;;5092252;28;20050;-65
2023/02/26 00:42:35;;;;;;;14.98;4.25;;;-1.70;99.90;;;;;;5093044;28;20032;-65
2023/02/26 00:45:01;;;;;;;13.85;4.20;;;-1.70;99.90;;;;;;5093388;28;20539;-65
2023/02/26 00:47:50;;;;;;;15.27;3.83;;;-1.50;99.90;;;;;;5093191;28;20024;-65
2023/02/26 00:50:19;;;;;;;14.50;3.30;;;-1.50;99.90;;;;;;5093373;28;20028;-66
2023/02/26 00:53:13;;;;;;;6.78;3.05;;;-1.50;99.90;;;;;;5097191;28;20020;-65
2023/02/26 00:55:39;;;;;;;13.70;2.97;;;-1.50;99.90;;;;;;5097304;28;20062;-66
2023/02/26 00:58:04;;;;;;;7.95;3.13;;;-1.50;99.90;;;;;;5097372;28;20063;-65
2023/02/26 01:00:30;;;;;;;9.27;3.17;;;-1.50;99.90;;;;;;5097225;28;20020;-65
2023/02/26 01:02:56;;;;;;;8.63;2.65;;;-1.50;99.90;;;;;;5096859;28;20027;-66
2023/02/26 01:05:22;;;;;;;6.93;2.90;;;-1.40;99.90;;;;;;5097177;28;20028;-65
2023/02/26 01:08:11;;;;;;;5.97;2.53;;;-1.50;99.90;;;;;;5097085;28;20024;-68
2023/02/26 01:10:37;;;;;;;8.32;2.90;;;-1.50;99.90;;;;;;5096836;28;20020;-66
2023/02/26 01:13:03;;;;;;;11.45;2.67;;;-1.50;99.90;;;;;;5096921;28;20099;-66
2023/02/26 01:15:29;;;;;;;9.45;2.97;;;-1.50;99.90;;;;;;5097010;28;20029;-66
2023/02/26 01:18:05;;;;;;;8.88;3.25;;;-1.50;99.90;;;;;;5097017;28;20034;-66
2023/02/26 01:20:40;;;;;;;7.53;2.30;;;-1.40;99.90;;;;;;5096564;28;20119;-65
2023/02/26 01:23:11;;;;;;;7.65;3.20;;;-1.40;99.90;;;;;;5096896;28;20055;-66
2023/02/26 01:25:42;;;;;;;10.10;2.60;;;-1.50;99.90;;;;;;5096612;28;20020;-66
2023/02/26 01:28:09;;;;;;;8.70;2.67;;;-1.40;99.90;;;;;;5096349;28;20050;-66
2023/02/26 01:30:34;;;;;;;8.90;2.75;;;-1.40;99.90;;;;;;5096433;28;20107;-66
2023/02/26 01:33:17;;;;;;;7.68;2.50;;;-1.40;99.90;;;;;;5096522;28;20123;-66
2023/02/26 01:35:49;;;;;;;13.27;3.42;;;-1.50;99.90;;;;;;5096444;28;20111;-66
2023/02/26 01:38:37;;;;;;;8.60;3.25;;;-1.50;99.90;;;;;;5096398;28;20020;-66
2023/02/26 01:41:42;;;;;;;7.38;2.45;;;-1.50;99.90;;;;;;5096244;28;20020;-66
2023/02/26 01:47:13;;;;;;;8.18;2.47;;;-1.40;99.90;;;;;;5111263;27;20449;-65
2023/02/26 01:49:39;;;;;;;6.57;2.35;;;-1.40;99.90;;;;;;5109946;28;20598;-65
2023/02/26 01:52:06;;;;;;;7.45;2.60;;;-1.30;99.90;;;;;;5111205;28;20028;-65
2023/02/26 01:54:35;;;;;;;11.63;2.67;;;-1.30;99.90;;;;;;5111191;28;20366;-65
2023/02/26 01:57:09;;;;;;;9.02;2.78;;;-1.40;99.90;;;;;;5110997;28;20031;-65
2023/02/26 01:59:40;;;;;;;6.03;2.60;;;-1.40;99.90;;;;;;5111016;28;20020;-65
2023/02/26 02:02:08;;;;;;;7.55;2.58;;;-1.40;99.90;;;;;;5110793;28;20024;-65
2023/02/26 02:04:34;;;;;;;9.32;2.58;;;-1.40;99.90;;;;;;5110735;28;20064;-65
2023/02/26 02:07:00;;;;;;;9.60;3.28;;;-1.40;99.90;;;;;;5111130;28;20031;-65
2023/02/26 02:09:26;;;;;;;4.90;2.78;;;-1.50;99.90;;;;;;5110827;28;20035;-65
2023/02/26 02:12:19;;;;;;;3.97;2.70;;;-1.50;99.90;;;;;;5110854;28;20028;-65
2023/02/26 02:15:13;;;;;;;4.27;2.33;;;-1.50;99.90;;;;;;5110417;28;20023;-65
2023/02/26 02:17:54;;;;;;;12.82;2.83;;;-1.60;99.90;;;;;;5109465;28;20016;-65
2023/02/26 02:20:50;;;;;;;11.35;2.80;;;-1.60;99.90;;;;;;5110495;28;20031;-65
2023/02/26 02:23:38;;;;;;;10.27;2.85;;;-1.50;99.90;;;;;;5110564;28;20451;-65
2023/02/26 02:26:24;;;;;;;3.60;2.13;;;-1.40;99.90;;;;;;5110226;28;20516;-65
2023/02/26 02:29:21;;;;;;;11.20;2.63;;;-1.40;99.90;;;;;;5110339;28;20020;-65
2023/02/26 02:31:59;;;;;;;8.82;2.72;;;-1.50;99.90;;;;;;5110312;28;20028;-65
2023/02/26 02:34:34;;;;;;;8.23;2.50;;;-1.50;99.90;;;;;;5090008;28;20049;-65
2023/02/26 02:37:24;;;;;;;4.82;2.35;;;-1.30;99.90;;;;;;5090036;28;20035;-65
2023/02/26 02:39:55;;;;;;;4.90;2.40;;;-1.40;99.90;;;;;;5089770;28;20027;-65
2023/02/26 02:42:36;;;;;;;10.90;2.40;;;-1.40;99.90;;;;;;5089615;28;20033;-65
2023/02/26 02:45:08;;;;;;;11.00;2.92;;;-1.40;99.90;;;;;;5089417;28;20410;-66
2023/02/26 02:47:38;;;;;;;6.20;2.20;;;-1.50;99.90;;;;;;5089914;28;20035;-65
2023/02/26 02:50:16;;;;;;;8.52;2.65;;;-1.60;99.90;;;;;;5089918;28;20017;-65
2023/02/26 02:52:50;;;;;;;4.65;2.42;;;-1.60;99.90;;;;;;5089803;28;20481;-65
2023/02/26 02:55:25;;;;;;;8.23;2.72;;;-1.70;99.90;;;;;;5089552;28;20471;-65
2023/02/26 02:58:00;;;;;;;8.02;2.40;;;-1.60;99.90;;;;;;5077144;28;20021;-65
2023/02/26 03:00:29;;;;;;;7.45;2.58;;;-1.50;99.90;;;;;;5075836;28;20127;-65
2023/02/26 03:03:05;;;;;;;5.70;2.95;;;-1.60;99.90;;;;;;5076153;28;20486;-65
2023/02/26 03:05:31;;;;;;;5.10;2.60;;;-1.60;99.90;;;;;;5075814;28;20494;-66
2023/02/26 03:08:01;;;;;;;8.05;2.63;;;-1.70;99.90;;;;;;5075921;28;20029;-65
2023/02/26 03:10:28;;;;;;;6.18;2.70;;;-1.90;99.90;;;;;;5076114;28;20493;-65
2023/02/26 03:12:53;;;;;;;5.85;2.67;;;-1.80;99.90;;;;;;5075497;28;20025;-65
2023/02/26 03:15:43;;;;;;;4.30;2.50;;;-1.80;99.90;;;;;;5075647;28;20034;-65
2023/02/26 03:18:23;;;;;;;7.32;2.42;;;-1.80;99.90;;;;;;5075617;28;20372;-65
2023/02/26 03:21:03;;;;;;;8.25;2.83;;;-1.80;99.90;;;;;;5075461;28;20064;-65
2023/02/26 03:23:36;;;;;;;5.10;2.70;;;-1.80;99.90;;;;;;5075549;28;20115;-65
2023/02/26 03:26:17;;;;;;;6.38;2.60;;;-1.80;99.90;;;;;;5075427;28;20060;-65
2023/02/26 03:28:50;;;;;;;9.13;2.83;;;-1.90;99.90;;;;;;5075469;28;20051;-65
2023/02/26 03:31:40;;;;;;;10.32;3.00;;;-2.00;99.90;;;;;;5075604;28;20498;-65
2023/02/26 03:34:34;;;;;;;4.38;2.40;;;-1.90;99.90;;;;;;5075274;28;20028;-65
2023/02/26 03:37:06;;;;;;;11.48;2.95;;;-1.90;99.90;;;;;;5074064;28;20478;-65
2023/02/26 03:39:40;;;;;;;9.75;2.90;;;-1.90;99.90;;;;;;5075225;28;20029;-65
2023/02/26 03:45:15;;;;;;;5.43;2.60;;;-1.80;99.90;;;;;;5070658;28;20353;-65
2023/02/26 03:47:44;;;;;;;6.00;2.38;;;-1.90;99.90;;;;;;5069437;28;20037;-65
2023/02/26 03:50:16;;;;;;;6.20;2.53;;;-1.80;99.90;;;;;;5070503;28;20029;-65
2023/02/26 03:52:46;;;;;;;6.07;2.25;;;-1.80;99.90;;;;;;5070524;28;20063;-65
2023/02/26 03:55:16;;;;;;;10.85;2.38;;;-1.90;99.90;;;;;;5070463;28;20497;-65
2023/02/26 03:57:42;;;;;;;11.30;3.50;;;-1.90;99.90;;;;;;5070347;28;20124;-65
2023/02/26 04:00:09;;;;;;;8.55;2.40;;;-1.80;99.90;;;;;;5070390;28;20033;-65
2023/02/26 04:02:44;;;;;;;9.73;2.47;;;-1.80;99.90;;;;;;5069239;28;20063;-65
2023/02/26 04:05:16;;;;;;;7.55;2.58;;;-1.80;99.90;;;;;;5070245;28;20112;-65
2023/02/26 04:07:43;;;;;;;6.50;2.33;;;-1.80;99.90;;;;;;5070167;28;20025;-65
2023/02/26 04:10:13;;;;;;;7.85;2.35;;;-1.80;99.90;;;;;;5070139;28;20112;-65
2023/02/26 04:12:38;;;;;;;6.85;2.45;;;-1.80;99.90;;;;;;5070125;28;20029;-65
2023/02/26 04:15:05;;;;;;;12.90;3.70;;;-1.80;99.90;;;;;;5070008;28;20067;-65
2023/02/26 04:17:31;;;;;;;7.18;2.50;;;-1.70;99.90;;;;;;5070035;28;20017;-65
2023/02/26 04:19:56;;;;;;;6.03;2.28;;;-1.80;99.90;;;;;;5070025;28;20167;-65
2023/02/26 04:22:22;;;;;;;10.52;2.38;;;-1.90;99.90;;;;;;5070021;28;20024;-65
2023/02/26 04:24:47;;;;;;;6.70;2.95;;;-1.90;99.90;;;;;;5069606;28;20036;-65
2023/02/26 04:27:13;;;;;;;7.63;2.30;;;-1.90;99.90;;;;;;5069679;28;20021;-65
2023/02/26 04:29:38;;;;;;;7.53;2.50;;;-1.90;99.90;;;;;;5069991;28;20031;-65
2023/02/26 04:32:04;;;;;;;6.85;2.72;;;-2.00;99.90;;;;;;5069533;28;20028;-65
2023/02/26 04:34:30;;;;;;;6.22;2.50;;;-2.00;99.90;;;;;;5069600;28;20039;-65
2023/02/26 04:36:55;;;;;;;11.00;2.35;;;-2.10;99.90;;;;;;5069674;28;20025;-65
2023/02/26 04:39:21;;;;;;;10.70;2.38;;;-2.00;99.90;;;;;;5069686;28;20060;-65
2023/02/26 04:41:46;;;;;;;5.85;2.10;;;-2.00;99.90;;;;;;5069422;28;20078;-65
2023/02/26 04:44:12;;;;;;;9.00;2.42;;;-1.90;99.90;;;;;;5069192;28;20048;-65
2023/02/26 04:46:37;;;;;;;6.50;2.47;;;-1.80;99.90;;;;;;5069379;28;20033;-65
2023/02/26 04:49:03;;;;;;;5.82;2.38;;;-1.90;99.90;;;;;;5069353;28;20047;-65
2023/02/26 04:51:29;;;;;;;7.88;2.67;;;-1.80;99.90;;;;;;5069331;28;20075;-65
2023/02/26 04:53:54;;;;;;;4.75;2.22;;;-1.80;99.90;;;;;;5069357;28;20052;-65
2023/02/26 04:56:20;;;;;;;5.30;2.55;;;-1.80;99.90;;;;;;5056753;28;20414;-65
2023/02/26 04:58:45;;;;;;;8.90;2.53;;;-1.80;99.90;;;;;;5055927;28;20033;-67
2023/02/26 05:01:12;;;;;;;6.80;2.25;;;-1.80;99.90;;;;;;5055699;28;20032;-65
2023/02/26 05:03:38;;;;;;;5.30;2.45;;;-1.80;99.90;;;;;;5055825;28;20483;-65
2023/02/26 05:06:04;;;;;;;6.25;2.33;;;-1.90;99.90;;;;;;5055859;28;20025;-65
2023/02/26 05:08:29;;;;;;;8.75;2.70;;;-1.90;99.90;;;;;;5055788;28;20029;-65
2023/02/26 05:10:55;;;;;;;8.20;2.58;;;-1.90;99.90;;;;;;5055618;28;20039;-65
2023/02/26 05:13:21;;;;;;;6.88;2.60;;;-2.00;99.90;;;;;;5055659;28;20067;-65
2023/02/26 05:15:46;;;;;;;8.63;2.60;;;-1.90;99.90;;;;;;5055823;28;20029;-65
2023/02/26 05:18:12;;;;;;;11.75;2.50;;;-1.90;99.90;;;;;;5055719;28;20098;-65
2023/02/26 05:20:38;;;;;;;8.15;2.35;;;-2.00;99.90;;;;;;5055785;28;20418;-65
2023/02/26 05:23:04;;;;;;;5.00;2.30;;;-2.00;99.90;;;;;;5055390;28;20521;-65
2023/02/26 05:25:29;;;;;;;6.40;2.13;;;-2.00;99.90;;;;;;5055639;28;20044;-65
2023/02/26 05:27:55;;;;;;;8.55;2.20;;;-2.00;99.90;;;;;;5055329;28;20024;-65
2023/02/26 05:30:21;;;;;;;8.43;2.47;;;-2.00;99.90;;;;;;5055337;28;20075;-65
2023/02/26 05:32:46;;;;;;;8.48;2.45;;;-2.00;99.90;;;;;;5055254;28;20467;-65
2023/02/26 05:35:13;;;;;;;11.57;2.70;;;-2.00;99.90;;;;;;5055027;28;20036;-65
2023/02/26 05:37:39;;;;;;;8.80;2.95;;;-2.10;99.90;;;;;;5055223;28;20387;-65
2023/02/26 05:40:09;;;;;;;4.82;2.17;;;-2.00;99.90;;;;;;5054125;28;20077;-65
2023/02/26 05:42:35;;;;;;;7.85;2.80;;;-2.00;99.90;;;;;;5055350;28;20028;-65
2023/02/26 05:45:01;;;;;;;8.38;2.72;;;-2.00;99.90;;;;;;5054776;28;20446;-65
2023/02/26 05:47:26;;;;;;;4.53;2.30;;;-2.00;99.90;;;;;;5055189;28;20029;-65
2023/02/26 05:49:52;;;;;;;5.65;2.53;;;-2.00;99.90;;;;;;5055081;28;20036;-65
2023/02/26 05:52:18;;;;;;;5.25;2.03;;;-2.00;99.90;;;;;;5054921;28;20040;-65
2023/02/26 05:54:43;;;;;;;5.88;2.50;;;-2.00;99.90;;;;;;5054975;28;20072;-65
2023/02/26 05:57:08;;;;;;;4.88;2.65;;;-2.00;99.90;;;;;;5054971;28;20064;-65
2023/02/26 05:59:34;;;;;;;7.90;2.60;;;-2.00;99.90;;;;;;5055123;28;20115;-65
2023/02/26 06:02:00;;;;;;;7.10;2.10;;;-2.00;99.90;;;;;;5054942;28;20032;-65
2023/02/26 06:04:25;;;;;;;8.77;2.03;;;-2.00;99.90;;;;;;5054472;28;20087;-65
2023/02/26 06:06:51;;;;;;;6.70;1.92;;;-2.00;99.90;;;;;;5053855;28;20064;-65
2023/02/26 06:09:16;;;;;;;6.78;2.70;;;-2.00;99.90;;;;;;5054687;28;20096;-65
2023/02/26 06:11:42;;;;;;;7.85;2.50;;;-2.10;99.90;;;;;;5054807;28;20475;-65
2023/02/26 06:14:07;;;;;;;6.78;2.53;;;-2.10;99.90;;;;;;5054440;28;20025;-65
2023/02/26 06:16:34;;;;;;;6.05;2.45;;;-2.10;99.90;;;;;;5054693;28;20167;-65
2023/02/26 06:19:00;;;;;;;9.23;2.38;;;-2.20;99.90;;;;;;5053393;28;20100;-65
2023/02/26 06:21:26;;;;;;;5.38;2.42;;;-2.20;99.90;;;;;;5054346;28;20474;-65
2023/02/26 06:23:51;;;;;;;6.10;2.47;;;-2.20;99.90;;;;;;5054331;28;20047;-65
2023/02/26 06:26:17;;;;;;;8.63;3.03;;;-2.20;99.90;;;;;;5054312;28;20032;-65
2023/02/26 06:28:42;;;;;;;8.63;2.53;;;-2.20;99.90;;;;;;5054570;28;20025;-65
2023/02/26 06:31:08;;;;;;;6.78;2.70;;;-2.20;99.90;;;;;;5054396;28;20021;-65
2023/02/26 06:33:33;;;;;;;6.55;2.63;;;-2.20;99.90;;;;;;5054466;28;20033;-65
2023/02/26 06:35:59;;;;;;;6.22;2.10;;;-2.20;99.90;;;;;;5054341;28;20076;-65
2023/02/26 06:38:26;;;;;;;4.55;2.35;;;-2.10;99.90;;;;;;5054007;28;20029;-65
2023/02/26 06:40:51;;;;;;;6.03;2.20;;;-2.10;99.90;;;;;;5053989;28;20438;-65
2023/02/26 06:43:17;;;;;;;9.73;2.22;;;-2.10;99.90;;;;;;5053873;28;20045;-65
2023/02/26 06:45:42;;;;;;;10.13;2.70;;;-2.10;99.90;;;;;;5054195;28;20075;-65
2023/02/26 06:48:08;;;;;;;6.80;2.45;;;-2.10;99.90;;;;;;5053922;28;20017;-65
2023/02/26 06:50:33;;;;;;;6.40;2.17;;;-2.10;99.90;;;;;;5054121;28;20395;-65
2023/02/26 06:52:59;;;;;;;5.72;2.75;;;-2.10;99.90;;;;;;5053773;28;20029;-65
2023/02/26 06:55:25;;;;;;;6.50;2.03;;;-2.10;99.90;;;;;;5053654;28;20021;-65
2023/02/26 06:57:53;;;;;;;9.30;2.42;;;-2.10;99.90;;;;;;5053679;28;20427;-65
2023/02/26 07:00:19;;;;;;;8.68;2.05;;;-2.10;99.90;;;;;;5053691;28;20017;-65
2023/02/26 07:02:44;;;;;;;6.80;2.47;;;-2.00;99.90;;;;;;5053551;28;20029;-65
2023/02/26 07:05:10;;;;;;;6.13;2.17;;;-1.90;99.90;;;;;;5053770;28;20053;-65
2023/02/26 07:07:36;;;;;;;4.35;2.00;;;-1.80;99.90;;;;;;5033743;28;20100;-65
2023/02/26 07:10:01;;;;;;;8.45;2.92;;;-1.70;99.90;;;;;;5033730;28;20025;-65
2023/02/26 07:12:27;;;;;;;5.80;2.10;;;-1.70;99.90;;;;;;5033526;28;20025;-65
2023/02/26 07:14:52;;;;;;;4.25;2.20;;;-1.30;99.90;;;;;;5033252;28;20059;-65
2023/02/26 07:17:19;;;;;;;9.45;2.45;;;-0.90;99.90;;;;;;5033213;28;20033;-65
2023/02/26 07:19:47;;;;;;;6.00;2.08;;;0.00;99.90;;;;;;5033215;28;20494;-65
2023/02/26 07:22:14;;;;;;;3.10;1.73;;;1.20;99.90;;;;;;5033468;28;20156;-65
2023/02/26 07:24:40;;;;;;;5.68;1.70;;;1.40;99.90;;;;;;5033268;28;20091;-65
2023/02/26 07:27:06;;;;;;;6.88;1.70;;;2.00;99.90;;;;;;5032298;28;20076;-65
2023/02/26 07:29:31;;;;;;;6.00;1.77;;;2.70;99.90;;;;;;5033465;28;20025;-65
2023/02/26 07:31:57;;;;;;;6.13;2.45;;;2.10;99.90;;;;;;5033200;28;20022;-65
2023/02/26 07:34:22;;;;;;;7.88;2.13;;;2.00;99.90;;;;;;5033296;28;20041;-65
2023/02/26 07:36:48;;;;;;;6.13;1.75;;;1.70;99.90;;;;;;5033259;28;20025;-65
2023/02/26 07:39:14;;;;;;;4.63;1.67;;;3.00;99.90;;;;;;5033206;28;20025;-65
2023/02/26 07:41:39;;;;;;;8.68;1.67;;;2.00;99.90;;;;;;5033248;28;20029;-65
2023/02/26 07:44:05;;;;;;;3.90;1.52;;;2.40;99.90;;;;;;5032986;28;20045;-65
2023/02/26 07:46:31;;;;;;;7.18;2.00;;;2.40;99.90;;;;;;5033220;28;20029;-65
2023/02/26 07:48:56;;;;;;;4.43;1.88;;;2.30;99.90;;;;;;5033113;28;20032;-65
2023/02/26 07:51:22;;;;;;;3.72;1.83;;;2.70;99.90;;;;;;5033349;28;20100;-65
2023/02/26 07:53:47;;;;;;;10.32;3.10;;;3.10;99.90;;;;;;5033046;28;20390;-65
2023/02/26 07:56:13;;;;;;;6.53;2.10;;;3.50;99.90;;;;;;5033073;28;20021;-65
2023/02/26 07:58:38;;;;;;;5.05;1.88;;;2.40;99.90;;;;;;5033048;28;20403;-65
2023/02/26 08:01:04;;;;;;;9.43;1.85;;;2.80;99.90;;;;;;5033350;28;20022;-65
2023/02/26 08:03:31;;;;;;;4.32;1.90;;;2.80;99.90;;;;;;5033034;28;20037;-65
2023/02/26 08:05:59;;;;;;;3.00;1.67;;;3.60;99.90;;;;;;5032824;28;20033;-65
2023/02/26 08:08:25;;;;;;;6.45;1.67;;;2.60;99.90;;;;;;5033255;28;20030;-65
2023/02/26 08:10:50;;;;;;;2.92;1.77;;;2.70;99.90;;;;;;5032852;28;20108;-65
2023/02/26 08:13:16;;;;;;;5.78;2.05;;;3.40;99.90;;;;;;5033061;28;20109;-65
2023/02/26 08:15:42;;;;;;;7.60;3.35;;;3.50;99.90;;;;;;5032919;28;20028;-65
2023/02/26 08:18:08;;;;;;;7.63;2.33;;;3.00;99.90;;;;;;5032894;28;20029;-65
2023/02/26 08:20:34;;;;;;;2.00;1.73;;;2.80;99.90;;;;;;5033045;28;20061;-65
2023/02/26 08:23:00;;;;;;;4.13;2.05;;;2.50;99.90;;;;;;5032797;28;20057;-65
2023/02/26 08:25:25;;;;;;;4.50;1.70;;;3.00;99.90;;;;;;5032708;28;20026;-65
2023/02/26 08:27:51;;;;;;;4.20;2.03;;;2.70;99.90;;;;;;5032752;28;20033;-64
2023/02/26 08:30:17;;;;;;;4.82;2.30;;;3.30;99.90;;;;;;5033891;28;20057;-65
2023/02/26 08:32:44;;;;;;;6.53;2.20;;;3.40;99.90;;;;;;5035554;28;20079;-64
2023/02/26 08:35:10;;;;;;;4.78;1.63;;;3.90;99.90;;;;;;5036557;28;20026;-64
2023/02/26 08:37:37;;;;;;;4.95;1.92;;;4.30;99.90;;;;;;5036443;28;20096;-65
2023/02/26 08:40:04;;;;;;;4.78;1.70;;;3.70;99.90;;;;;;5036618;28;20076;-65
2023/02/26 08:42:30;;;;;;;4.25;1.83;;;4.30;99.90;;;;;;5036434;28;20032;-65
2023/02/26 08:44:55;;;;;;;5.68;1.70;;;4.30;99.90;;;;;;5036044;28;20496;-65
2023/02/26 08:47:21;;;;;;;5.47;1.88;;;3.30;99.90;;;;;;5036374;28;20033;-65
2023/02/26 08:49:46;;;;;;;3.70;1.95;;;4.40;99.90;;;;;;5036402;28;20105;-65
2023/02/26 08:52:12;;;;;;;4.10;2.20;;;4.80;99.90;;;;;;5036363;28;20033;-65
2023/02/26 08:54:37;;;;;;;4.55;1.80;;;5.50;99.90;;;;;;5035950;28;20025;-65
2023/02/26 08:57:03;;;;;;;4.75;1.80;;;4.80;99.90;;;;;;5036387;28;20083;-65
2023/02/26 08:59:28;;;;;;;4.45;2.25;;;4.80;99.90;;;;;;5036154;28;20120;-65
2023/02/26 09:01:54;;;;;;;3.92;1.98;;;4.60;99.90;;;;;;5036087;28;20037;-65
2023/02/26 09:04:20;;;;;;;6.30;1.92;;;4.20;99.90;;;;;;5035815;28;20125;-65
2023/02/26 09:06:45;;;;;;;4.45;2.15;;;4.60;99.90;;;;;;5035899;28;20491;-65
2023/02/26 09:09:11;;;;;;;6.30;1.95;;;4.80;99.90;;;;;;5035819;28;20029;-65
2023/02/26 09:11:37;;;;;;;7.32;2.20;;;5.10;99.90;;;;;;5035913;28;20097;-65
2023/02/26 09:14:03;;;;;;;5.05;1.60;;;5.90;99.90;;;;;;5035792;28;20041;-65
2023/02/26 09:16:30;;;;;;;3.70;1.70;;;5.60;99.90;;;;;;5034694;28;20069;-65
2023/02/26 09:18:56;;;;;;;5.80;1.90;;;5.00;99.90;;;;;;5035458;28;20120;-65
2023/02/26 09:21:22;;;;;;;5.32;1.63;;;5.30;99.90;;;;;;5035584;28;20536;-65
2023/02/26 09:23:48;;;;;;;6.60;1.73;;;4.70;99.90;;;;;;5035512;28;20037;-65
2023/02/26 09:26:13;;;;;;;5.72;2.17;;;5.10;99.90;;;;;;5035586;28;20026;-65
2023/02/26 09:28:39;;;;;;;8.75;1.90;;;4.90;99.90;;;;;;5035664;28;20467;-65
2023/02/26 09:31:05;;;;;;;9.77;2.10;;;5.40;99.90;;;;;;5035781;28;20368;-65
2023/02/26 09:33:32;;;;;;;7.72;1.90;;;6.00;99.90;;;;;;5035570;28;20032;-65
2023/02/26 09:35:57;;;;;;;3.95;1.80;;;5.70;99.90;;;;;;5035316;28;20029;-65
2023/02/26 09:38:23;;;;;;;3.08;1.67;;;6.30;99.90;;;;;;5035280;28;20494;-65
2023/02/26 09:40:55;;;;;;;3.50;1.63;;;6.70;99.90;;;;;;5035132;28;20032;-65
2023/02/26 09:43:48;;;;;;;3.88;1.63;;;6.10;99.90;;;;;;5035054;28;20057;-65
2023/02/26 09:46:47;;;;;;;4.78;1.90;;;5.80;99.90;;;;;;5035320;28;20391;-65
2023/02/26 09:49:38;;;;;;;4.82;1.60;;;5.30;99.90;;;;;;5034974;28;20026;-65
2023/02/26 09:52:22;;;;;;;3.33;1.40;;;5.30;99.90;;;;;;5035106;28;20022;-65
2023/02/26 09:54:51;;;;;;;6.22;1.90;;;6.30;99.90;;;;;;5035002;28;20033;-65
2023/02/26 09:57:40;;;;;;;3.50;1.40;;;5.10;99.90;;;;;;5035086;28;20160;-65
2023/02/26 10:05:41;;;;;;;5.30;1.83;;;5.00;99.90;;;;;;5111273;27;20377;-64
2023/02/26 10:08:14;;;;;;;2.40;1.20;;;5.80;99.90;;;;;;5111200;28;20089;-64
2023/02/26 10:10:57;;;;;;;2.83;1.60;;;6.10;99.90;;;;;;5111107;28;20020;-65
2023/02/26 10:13:48;;;;;;;5.07;1.70;;;5.70;99.90;;;;;;5111035;28;20477;-64
2023/02/26 10:16:18;;;;;;;6.40;1.85;;;5.90;99.90;;;;;;5110842;28;20028;-64
2023/02/26 10:18:51;;;;;;;6.93;1.52;;;6.30;99.90;;;;;;5110936;28;20366;-65
2023/02/26 10:21:31;;;;;;;6.20;1.92;;;5.30;99.90;;;;;;5110855;28;20031;-64
2023/02/26 10:24:02;;;;;;;5.65;1.90;;;5.30;99.90;;;;;;5110688;28;20035;-64
2023/02/26 10:26:36;;;;;;;5.60;1.60;;;4.70;99.90;;;;;;5110696;28;20068;-64
2023/02/26 10:29:18;;;;;;;4.68;1.58;;;4.90;99.90;;;;;;5110841;28;20024;-64
2023/02/26 10:34:55;;;;;;;3.72;1.30;;;4.70;99.90;;;;;;5111193;27;20376;-64
2023/02/26 10:37:32;;;;;;;6.65;1.60;;;4.90;99.90;;;;;;5109912;28;20024;-64
2023/02/26 10:40:21;;;;;;;4.88;1.45;;;4.50;99.90;;;;;;5111024;28;20027;-64
2023/02/26 10:42:54;;;;;;;3.65;1.38;;;5.20;99.90;;;;;;5111117;28;20031;-65
2023/02/26 10:50:50;;;;;;;3.65;1.08;;;5.80;99.90;;;;;;5111113;27;20743;-64
2023/02/26 10:53:16;;;;;;;6.85;1.30;;;5.30;99.90;;;;;;5111100;28;20070;-64
2023/02/26 10:56:05;;;;;;;2.72;1.30;;;5.40;99.90;;;;;;5111079;28;20027;-64
2023/02/26 10:58:31;;;;;;;2.65;1.45;;;4.70;99.90;;;;;;5110870;28;20504;-65
2023/02/26 11:00:56;;;;;;;3.13;1.20;;;4.90;99.90;;;;;;5110944;28;20027;-65
2023/02/26 11:03:32;;;;;;;5.78;1.77;;;5.60;99.90;;;;;;5110882;28;20393;-64
2023/02/26 11:05:58;;;;;;;5.03;0.85;;;5.50;99.90;;;;;;5110852;28;20031;-65
2023/02/26 11:08:29;;;;;;;1.90;1.15;;;5.50;99.90;;;;;;5110920;28;20024;-64
2023/02/26 11:10:57;;;;;;;2.47;1.20;;;6.10;99.90;;;;;;5109515;28;20062;-65
2023/02/26 11:13:25;;;;;;;4.65;0.82;;;5.80;99.90;;;;;;5109820;28;20031;-65
2023/02/26 11:15:54;;;;;;;2.70;1.00;;;5.70;99.90;;;;;;5110647;28;20048;-65
2023/02/26 11:18:24;;;;;;;2.78;1.00;;;5.60;99.90;;;;;;5110487;28;20028;-65
2023/02/26 11:20:55;;;;;;;3.28;1.20;;;5.80;99.90;;;;;;5110297;28;20389;-64
2023/02/26 11:23:23;;;;;;;4.47;0.95;;;5.90;99.90;;;;;;5110884;28;20020;-65
2023/02/26 11:26:01;;;;;;;1.42;1.02;;;5.40;99.90;;;;;;5110508;28;20023;-64
2023/02/26 11:28:45;;;;;;;2.03;0.90;;;6.10;99.90;;;;;;5110339;28;20481;-65
2023/02/26 11:31:16;;;;;;;1.95;1.20;;;5.30;99.90;;;;;;5109282;28;20452;-65
2023/02/26 11:33:50;;;;;;;7.03;1.40;;;5.20;99.90;;;;;;5110470;28;20016;-65
2023/02/26 11:36:19;;;;;;;4.43;1.40;;;5.50;99.90;;;;;;5110323;28;20026;-65
2023/02/26 11:38:53;;;;;;;4.28;1.33;;;5.10;99.90;;;;;;5110252;28;20024;-64
2023/02/26 11:41:21;;;;;;;2.35;0.98;;;4.90;99.90;;;;;;5110118;28;20069;-65
2023/02/26 11:43:57;;;;;;;3.90;1.20;;;4.90;99.90;;;;;;5110149;28;20032;-65
2023/02/26 11:46:24;;;;;;;2.58;1.67;;;4.70;99.90;;;;;;5109114;28;20497;-64
2023/02/26 11:48:52;;;;;;;1.50;0.98;;;4.30;99.90;;;;;;5109786;28;20554;-65
2023/02/26 11:51:21;;;;;;;4.15;1.50;;;4.20;99.90;;;;;;5110004;28;20047;-64
2023/02/26 11:53:51;;;;;;;4.13;1.20;;;4.10;99.90;;;;;;5109877;28;20031;-64
2023/02/26 11:56:39;;;;;;;4.03;1.40;;;4.00;99.90;;;;;;5108753;28;20534;-65
2023/02/26 11:59:15;;;;;;;2.33;0.80;;;4.20;99.90;;;;;;5109995;28;20028;-65
2023/02/26 12:01:41;;;;;;;2.50;0.98;;;4.30;99.90;;;;;;5098479;28;20410;-65
2023/02/26 12:04:11;;;;;;;2.63;1.00;;;4.20;99.90;;;;;;5096242;28;20504;-65
2023/02/26 12:06:37;;;;;;;2.58;1.00;;;4.40;99.90;;;;;;5096239;28;20027;-65
2023/02/26 12:09:03;;;;;;;2.03;1.05;;;4.50;99.90;;;;;;5096035;28;20103;-65
2023/02/26 12:11:43;;;;;;;3.28;1.63;;;4.20;99.90;;;;;;5095978;28;20016;-65
2023/02/26 12:14:48;;;;;;;2.75;1.23;;;4.50;99.90;;;;;;5096066;28;20367;-65
2023/02/26 12:17:53;;;;;;;2.42;1.20;;;4.80;99.90;;;;;;5095811;28;20048;-65
2023/02/26 12:20:32;;;;;;;2.17;0.95;;;4.80;99.90;;;;;;5094888;28;20504;-65
2023/02/26 12:23:24;;;;;;;1.67;0.80;;;4.90;99.90;;;;;;5095657;28;20048;-65
2023/02/26 12:26:04;;;;;;;2.75;0.80;;;4.80;99.90;;;;;;5095695;28;20021;-64
2023/02/26 12:28:57;;;;;;;1.27;0.85;;;4.90;99.90;;;;;;5095633;28;20394;-65
2023/02/26 12:32:02;;;;;;;1.33;0.90;;;4.80;99.90;;;;;;5095744;28;20020;-65
2023/02/26 12:34:59;;;;;;;3.35;1.08;;;4.60;99.90;;;;;;5095456;28;20028;-64
2023/02/26 12:37:50;;;;;;;3.90;1.00;;;5.20;99.90;;;;;;5095637;28;20447;-64
2023/02/26 12:40:42;;;;;;;2.25;1.02;;;4.60;99.90;;;;;;5095547;28;20538;-65
2023/02/26 12:43:48;;;;;;;3.22;1.05;;;5.10;99.90;;;;;;5095342;28;20020;-65
2023/02/26 12:46:37;;;;;;;3.13;1.10;;;5.00;99.90;;;;;;5095296;28;20048;-65
2023/02/26 12:52:36;;;;;;;2.40;0.90;;;4.50;99.90;;;;;;5070753;28;20390;-64
2023/02/26 12:55:18;;;;;;;3.20;0.93;;;4.60;99.90;;;;;;5070334;28;20441;-64
2023/02/26 12:57:56;;;;;;;1.77;0.90;;;4.40;99.90;;;;;;5070619;28;20115;-64
2023/02/26 13:03:49;;;;;;;3.53;0.82;;;4.80;99.90;;;;;;5111006;27;20917;-64
2023/02/26 13:06:41;;;;;;;3.28;1.33;;;5.00;99.90;;;;;;5111080;28;20036;-64
2023/02/26 13:09:30;;;;;;;2.55;0.90;;;5.30;99.90;;;;;;5110833;28;20114;-64
2023/02/26 13:12:20;;;;;;;2.67;1.02;;;5.20;99.90;;;;;;5110850;28;20510;-64
2023/02/26 13:20:55;;;;;;;3.13;0.88;;;4.10;99.90;;;;;;5070654;28;20379;-64
2023/02/26 13:23:24;;;;;;;1.98;0.98;;;3.90;99.90;;;;;;5069372;28;20036;-64
2023/02/26 13:26:01;;;;;;;3.53;0.90;;;3.70;99.90;;;;;;5069313;28;20033;-64
2023/02/26 13:29:02;;;;;;;2.85;1.25;;;3.80;99.90;;;;;;5070341;28;20544;-65
2023/02/26 13:31:34;;;;;;;4.18;1.02;;;4.20;99.90;;;;;;5069267;28;20032;-63
2023/02/26 13:34:06;;;;;;;2.63;1.10;;;4.30;99.90;;;;;;5070433;28;20056;-64
2023/02/26 13:36:32;;;;;;;3.70;1.27;;;4.20;99.90;;;;;;5070376;28;20482;-64
2023/02/26 13:42:13;;;;;;;1.67;1.20;;;4.40;99.90;;;;;;5090759;28;20405;-64
2023/02/26 13:44:53;;;;;;;2.85;1.17;;;4.80;99.90;;;;;;5090441;28;20389;-65
2023/02/26 13:47:48;;;;;;;3.08;1.13;;;4.30;99.90;;;;;;5090770;28;20025;-64